Time;durP1;ratioP1;P1;durP2;ratioP2;P2;SDS_P1;SDS_P2;PMS_P1;PMS_P2;Temp;Humidity;BMP_temperature;BMP_pressure;BME280_temperature;BME280_humidity;BME280_pressure;Samples;Min_cycle;Max_cycle;Signal;HPM_P1;HPM_P2
2023/08/14 00:02:23;;;;;;;3.77;2.13;;;16.30;99.90;;;;;;4994880;28;20187;-83
2023/08/14 00:04:49;;;;;;;5.53;2.00;;;16.30;99.90;;;;;;4989247;28;20178;-83
2023/08/14 00:07:14;;;;;;;6.47;2.40;;;16.20;99.90;;;;;;4998960;28;20211;-84
2023/08/14 00:09:40;;;;;;;4.20;1.90;;;16.20;99.90;;;;;;4999657;28;20202;-84
2023/08/14 00:12:06;;;;;;;2.30;2.03;;;16.30;99.90;;;;;;4996364;28;20264;-84
2023/08/14 00:14:32;;;;;;;2.27;2.00;;;16.30;99.90;;;;;;4996722;28;20183;-85
2023/08/14 00:16:57;;;;;;;5.23;2.20;;;16.30;99.90;;;;;;4998866;28;20187;-83
2023/08/14 00:19:23;;;;;;;2.57;1.80;;;16.30;99.90;;;;;;4998778;28;20195;-83
2023/08/14 00:21:49;;;;;;;2.93;2.00;;;16.30;99.90;;;;;;4995647;28;20179;-83
2023/08/14 00:24:14;;;;;;;3.33;2.20;;;16.30;99.90;;;;;;4998375;28;20172;-85
2023/08/14 00:26:40;;;;;;;2.70;2.17;;;16.30;99.90;;;;;;4998526;28;20203;-83
2023/08/14 00:29:05;;;;;;;3.97;2.00;;;16.30;99.90;;;;;;4997034;28;20196;-83
2023/08/14 00:31:31;;;;;;;3.10;1.87;;;16.30;99.90;;;;;;4997244;28;20183;-83
2023/08/14 00:33:57;;;;;;;5.27;2.07;;;16.20;99.90;;;;;;4998645;28;20218;-85
2023/08/14 00:36:22;;;;;;;2.33;2.07;;;16.30;99.90;;;;;;4998777;28;20187;-83
2023/08/14 00:38:48;;;;;;;2.13;1.73;;;16.30;99.90;;;;;;4996738;28;20313;-83
2023/08/14 00:41:13;;;;;;;2.87;2.10;;;16.30;99.90;;;;;;4998210;28;20753;-84
2023/08/14 00:43:39;;;;;;;2.13;1.80;;;16.30;99.90;;;;;;4996685;28;20176;-84
2023/08/14 00:46:06;;;;;;;2.53;1.97;;;16.30;99.90;;;;;;4989530;28;20179;-84
2023/08/14 00:48:31;;;;;;;2.97;2.00;;;16.30;99.90;;;;;;4987708;28;20191;-85
2023/08/14 00:50:57;;;;;;;3.00;2.00;;;16.30;99.90;;;;;;4998578;28;20222;-84
2023/08/14 00:53:26;;;;;;;3.17;2.20;;;16.30;99.90;;;;;;4996394;28;20180;-84
2023/08/14 00:55:52;;;;;;;2.73;2.00;;;16.20;99.90;;;;;;4996403;28;20180;-84
2023/08/14 00:58:18;;;;;;;3.73;1.80;;;16.20;99.90;;;;;;4997826;28;20685;-84
2023/08/14 01:00:44;;;;;;;2.77;1.87;;;16.10;99.90;;;;;;5001552;28;20203;-83
2023/08/14 01:03:10;;;;;;;4.50;2.13;;;16.10;99.90;;;;;;5001590;28;20175;-83
2023/08/14 01:05:35;;;;;;;2.77;2.07;;;16.10;99.90;;;;;;5001420;28;20576;-83
2023/08/14 01:08:01;;;;;;;2.93;2.03;;;16.10;99.90;;;;;;4999872;28;20172;-83
2023/08/14 01:10:45;;;;;;;2.33;2.10;;;16.20;99.90;;;;;;5001818;28;20255;-84
2023/08/14 01:13:19;;;;;;;2.77;1.93;;;16.10;99.90;;;;;;5001884;28;20172;-83
2023/08/14 01:15:48;;;;;;;3.03;2.10;;;16.10;99.90;;;;;;5000105;28;20238;-83
2023/08/14 01:18:17;;;;;;;3.70;1.93;;;16.10;99.90;;;;;;4999620;28;20180;-83
2023/08/14 01:20:53;;;;;;;3.40;2.10;;;16.10;99.90;;;;;;5000467;28;20294;-84
2023/08/14 01:23:30;;;;;;;2.43;2.10;;;16.10;99.90;;;;;;4999642;28;20245;-83
2023/08/14 01:25:56;;;;;;;2.77;2.00;;;16.20;99.90;;;;;;5001126;28;20182;-83
2023/08/14 01:28:22;;;;;;;3.00;2.33;;;16.30;99.90;;;;;;4999615;28;20671;-84
2023/08/14 01:30:48;;;;;;;2.87;2.20;;;16.30;99.90;;;;;;5000917;28;20179;-83
2023/08/14 01:33:14;;;;;;;3.30;1.93;;;16.30;99.90;;;;;;5000862;28;20639;-84
2023/08/14 01:35:45;;;;;;;2.50;2.30;;;16.40;99.90;;;;;;5001250;28;20195;-84
2023/08/14 01:38:17;;;;;;;4.70;2.10;;;16.30;99.90;;;;;;4999020;28;20238;-83
2023/08/14 01:41:01;;;;;;;2.93;2.20;;;16.30;99.90;;;;;;4999052;28;20250;-83
2023/08/14 01:43:31;;;;;;;2.07;1.87;;;16.10;99.90;;;;;;5000854;28;20658;-83
2023/08/14 01:45:57;;;;;;;3.93;2.30;;;16.10;99.90;;;;;;5000902;28;20172;-83
2023/08/14 01:48:24;;;;;;;3.33;2.10;;;16.00;99.90;;;;;;4999512;28;20188;-83
2023/08/14 01:50:51;;;;;;;4.43;2.07;;;16.00;99.90;;;;;;5000382;28;20736;-83
2023/08/14 01:53:17;;;;;;;2.70;2.00;;;16.10;99.90;;;;;;5000298;28;20254;-83
2023/08/14 01:55:43;;;;;;;2.40;2.10;;;16.10;99.90;;;;;;4991725;28;20184;-83
2023/08/14 01:58:09;;;;;;;2.27;2.07;;;16.10;99.90;;;;;;5000398;28;20180;-84
2023/08/14 02:00:36;;;;;;;2.20;2.00;;;16.10;99.90;;;;;;4998916;28;20302;-85
2023/08/14 02:03:02;;;;;;;3.80;2.10;;;16.10;99.90;;;;;;5000294;28;20172;-83
2023/08/14 02:05:27;;;;;;;2.77;2.20;;;16.10;99.90;;;;;;5000370;28;20226;-83
2023/08/14 02:07:53;;;;;;;3.23;2.40;;;16.20;99.90;;;;;;5000506;28;20176;-83
2023/08/14 02:10:18;;;;;;;3.73;2.00;;;16.10;99.90;;;;;;4999115;28;20284;-85
2023/08/14 02:12:44;;;;;;;3.60;2.20;;;16.00;99.90;;;;;;4998636;28;20172;-83
2023/08/14 02:15:10;;;;;;;3.00;2.13;;;16.10;99.90;;;;;;4997994;28;20261;-83
2023/08/14 02:17:35;;;;;;;3.47;2.20;;;16.10;99.90;;;;;;4998991;28;20172;-83
2023/08/14 02:20:01;;;;;;;2.83;2.17;;;16.10;99.90;;;;;;4999805;28;20678;-83
2023/08/14 02:22:26;;;;;;;3.83;2.20;;;16.20;99.90;;;;;;4998519;28;20180;-83
2023/08/14 02:24:52;;;;;;;2.60;2.10;;;16.20;99.90;;;;;;4999949;28;20247;-84
2023/08/14 02:27:18;;;;;;;6.03;2.20;;;16.10;99.90;;;;;;4999947;28;20190;-83
2023/08/14 02:29:45;;;;;;;4.07;2.27;;;16.20;99.90;;;;;;4997919;28;20200;-84
2023/08/14 02:32:10;;;;;;;4.30;2.07;;;16.20;99.90;;;;;;4999716;28;20180;-83
2023/08/14 02:34:46;;;;;;;4.20;2.30;;;16.10;99.90;;;;;;4998153;28;20188;-83
2023/08/14 02:37:14;;;;;;;2.67;2.10;;;16.10;99.90;;;;;;4998237;28;20190;-84
2023/08/14 02:39:41;;;;;;;2.80;2.10;;;16.10;99.90;;;;;;5000745;28;20259;-83
2023/08/14 02:42:07;;;;;;;2.60;2.00;;;16.00;99.90;;;;;;5000012;28;20192;-83
2023/08/14 02:44:33;;;;;;;4.10;1.90;;;16.00;99.90;;;;;;4998041;28;20179;-83
2023/08/14 02:46:59;;;;;;;2.40;2.20;;;15.90;99.90;;;;;;4999933;28;20207;-83
2023/08/14 02:49:25;;;;;;;5.03;2.23;;;15.90;99.90;;;;;;4997992;28;20203;-83
2023/08/14 02:51:51;;;;;;;4.30;2.20;;;15.90;99.90;;;;;;4999858;28;20187;-83
2023/08/14 02:54:17;;;;;;;2.30;2.07;;;15.90;99.90;;;;;;4999338;28;20241;-83
2023/08/14 02:56:43;;;;;;;2.87;1.87;;;16.10;99.90;;;;;;4997245;28;20274;-83
2023/08/14 02:59:08;;;;;;;2.87;2.10;;;16.10;99.90;;;;;;4998305;28;20200;-83
2023/08/14 03:01:34;;;;;;;2.60;2.00;;;16.10;99.90;;;;;;4997840;28;20254;-83
2023/08/14 03:03:59;;;;;;;3.83;2.50;;;16.00;99.90;;;;;;4997931;28;20171;-83
2023/08/14 03:06:29;;;;;;;4.70;2.43;;;16.00;99.90;;;;;;4998109;28;20244;-84
2023/08/14 03:08:55;;;;;;;4.10;2.50;;;16.00;99.90;;;;;;4999555;28;20299;-83
2023/08/14 03:11:21;;;;;;;3.23;2.33;;;16.00;99.90;;;;;;4999601;28;20259;-84
2023/08/14 03:13:47;;;;;;;3.13;2.20;;;16.00;99.90;;;;;;4999684;28;20190;-84
2023/08/14 03:16:13;;;;;;;3.03;2.30;;;16.00;99.90;;;;;;4998021;28;20175;-83
2023/08/14 03:18:38;;;;;;;2.77;2.23;;;16.00;99.90;;;;;;4998897;28;20577;-83
2023/08/14 03:21:04;;;;;;;3.87;2.10;;;15.90;99.90;;;;;;4996945;28;20298;-84
2023/08/14 03:23:30;;;;;;;2.47;2.20;;;15.90;99.90;;;;;;4997581;28;20176;-83
2023/08/14 03:25:55;;;;;;;3.23;2.13;;;15.90;99.90;;;;;;4997810;28;20176;-83
2023/08/14 03:28:21;;;;;;;2.40;2.20;;;15.90;99.90;;;;;;4996993;28;20188;-83
2023/08/14 03:30:48;;;;;;;3.30;2.00;;;15.90;99.90;;;;;;4999342;28;20369;-83
2023/08/14 03:33:14;;;;;;;2.93;2.20;;;15.90;99.90;;;;;;4999136;28;20585;-85
2023/08/14 03:35:40;;;;;;;2.20;2.00;;;15.90;99.90;;;;;;4996890;28;20186;-83
2023/08/14 03:38:05;;;;;;;3.17;1.97;;;15.80;99.90;;;;;;4996927;28;20175;-83
2023/08/14 03:40:31;;;;;;;2.50;2.20;;;15.80;99.90;;;;;;4996925;28;20210;-84
2023/08/14 03:42:57;;;;;;;3.63;2.20;;;15.80;99.90;;;;;;4998636;28;20547;-83
2023/08/14 03:45:22;;;;;;;3.00;2.43;;;15.80;99.90;;;;;;4998779;28;20172;-84
2023/08/14 03:47:48;;;;;;;4.57;2.60;;;15.80;99.90;;;;;;4996817;28;20172;-83
2023/08/14 03:50:13;;;;;;;2.80;2.50;;;15.80;99.90;;;;;;4997065;28;20195;-83
2023/08/14 03:52:39;;;;;;;3.70;2.50;;;15.80;99.90;;;;;;4996559;28;20246;-84
2023/08/14 03:55:05;;;;;;;3.80;2.40;;;15.70;99.90;;;;;;4996898;28;20176;-84
2023/08/14 03:57:30;;;;;;;2.70;2.40;;;15.60;99.90;;;;;;4999316;28;20178;-83
2023/08/14 03:59:56;;;;;;;3.80;2.53;;;15.70;99.90;;;;;;4997773;28;20219;-83
2023/08/14 04:02:21;;;;;;;3.23;2.30;;;15.70;99.90;;;;;;4998080;28;20274;-85
2023/08/14 04:04:47;;;;;;;2.40;2.13;;;15.70;99.90;;;;;;4980544;28;20198;-83
2023/08/14 04:07:12;;;;;;;2.80;2.40;;;15.70;99.90;;;;;;4981176;28;20168;-83
2023/08/14 04:09:38;;;;;;;2.47;2.27;;;15.60;99.90;;;;;;4980000;28;20671;-83
2023/08/14 04:12:04;;;;;;;2.50;2.30;;;15.60;99.90;;;;;;4998266;28;20198;-84
2023/08/14 04:14:30;;;;;;;2.67;2.33;;;15.50;99.90;;;;;;4997672;28;20168;-83
2023/08/14 04:16:56;;;;;;;2.93;1.90;;;15.50;99.90;;;;;;4998416;28;20176;-83
2023/08/14 04:19:22;;;;;;;2.87;2.23;;;15.50;99.90;;;;;;4997967;28;20195;-83
2023/08/14 04:21:47;;;;;;;3.60;2.40;;;15.40;99.90;;;;;;4984173;28;20686;-83
2023/08/14 04:24:13;;;;;;;3.13;2.43;;;15.40;99.90;;;;;;4998147;28;20164;-84
2023/08/14 04:26:39;;;;;;;3.13;2.30;;;15.50;99.90;;;;;;4998446;28;20528;-83
2023/08/14 04:29:08;;;;;;;2.50;2.30;;;15.60;99.90;;;;;;4997608;28;20219;-84
2023/08/14 04:31:35;;;;;;;2.93;2.50;;;15.60;99.90;;;;;;4998353;28;20254;-83
2023/08/14 04:34:01;;;;;;;3.73;2.37;;;15.60;99.90;;;;;;5000507;28;20172;-83
2023/08/14 04:36:26;;;;;;;2.23;2.03;;;15.60;99.90;;;;;;5001678;28;20226;-83
2023/08/14 04:38:52;;;;;;;2.23;1.70;;;15.60;99.90;;;;;;5002098;28;20271;-83
2023/08/14 04:41:17;;;;;;;2.20;1.80;;;16.50;99.90;;;;;;5000938;28;20297;-83
2023/08/14 04:43:43;;;;;;;2.90;1.90;;;17.10;99.90;;;;;;5002333;28;20187;-85
2023/08/14 04:46:10;;;;;;;2.43;1.80;;;17.90;99.90;;;;;;5000486;28;20186;-82
2023/08/14 04:48:37;;;;;;;2.30;1.83;;;18.60;99.90;;;;;;4998147;28;20192;-83
2023/08/14 04:51:06;;;;;;;2.47;2.00;;;18.10;99.90;;;;;;4997751;28;20226;-85
2023/08/14 04:53:32;;;;;;;4.07;2.07;;;18.70;99.90;;;;;;4997369;28;20203;-83
2023/08/14 04:55:57;;;;;;;3.20;2.00;;;18.50;99.90;;;;;;4995366;28;20191;-87
2023/08/14 04:58:23;;;;;;;4.03;1.80;;;18.40;99.90;;;;;;4999583;28;20200;-85
2023/08/14 05:00:48;;;;;;;3.23;2.07;;;18.40;99.90;;;;;;4999275;28;20213;-83
2023/08/14 05:03:14;;;;;;;2.90;2.53;;;18.20;99.90;;;;;;4991371;28;20210;-84
2023/08/14 05:05:40;;;;;;;2.80;2.30;;;17.80;99.90;;;;;;4992252;28;20176;-84
2023/08/14 05:08:05;;;;;;;2.60;1.80;;;17.40;99.90;;;;;;4999795;28;20171;-84
2023/08/14 05:10:32;;;;;;;2.33;2.03;;;17.50;99.90;;;;;;4999969;28;20190;-84
2023/08/14 05:12:58;;;;;;;3.70;2.20;;;17.80;99.90;;;;;;5001495;28;20188;-85
2023/08/14 05:15:24;;;;;;;2.47;2.13;;;17.90;99.90;;;;;;5000646;28;20183;-83
2023/08/14 05:17:49;;;;;;;1.77;1.63;;;17.90;99.90;;;;;;4999490;28;20180;-84
2023/08/14 05:20:15;;;;;;;2.53;2.00;;;18.10;99.90;;;;;;4999170;28;20231;-85
2023/08/14 05:22:43;;;;;;;2.40;2.10;;;18.60;99.90;;;;;;5001062;28;20230;-85
2023/08/14 05:25:10;;;;;;;3.93;2.10;;;18.80;99.90;;;;;;4999734;28;20191;-85
2023/08/14 05:27:38;;;;;;;2.30;2.00;;;19.10;99.90;;;;;;5000090;28;20172;-83
2023/08/14 05:30:05;;;;;;;2.87;2.40;;;19.10;99.90;;;;;;4999735;28;20255;-84
2023/08/14 05:32:30;;;;;;;2.70;2.00;;;18.80;99.90;;;;;;4998767;28;20677;-83
2023/08/14 05:34:56;;;;;;;3.60;2.17;;;18.90;99.90;;;;;;4999889;28;20266;-85
2023/08/14 05:37:22;;;;;;;5.30;2.90;;;19.20;99.90;;;;;;4997790;28;20205;-85
2023/08/14 05:39:47;;;;;;;2.60;2.27;;;19.00;99.90;;;;;;4994586;28;20266;-87
2023/08/14 05:42:15;;;;;;;3.93;2.67;;;18.80;99.90;;;;;;4995688;28;20599;-86
2023/08/14 05:44:40;;;;;;;7.60;2.40;;;18.70;99.90;;;;;;4985030;28;20661;-85
2023/08/14 05:47:06;;;;;;;2.73;2.40;;;18.80;99.90;;;;;;4994413;28;20171;-85
2023/08/14 05:49:31;;;;;;;3.97;2.40;;;19.00;99.90;;;;;;4994091;28;20284;-86
2023/08/14 05:51:57;;;;;;;3.57;2.70;;;19.10;99.90;;;;;;4994320;28;20477;-86
2023/08/14 05:54:22;;;;;;;3.60;2.80;;;18.90;99.90;;;;;;4996951;28;20180;-82
2023/08/14 05:56:49;;;;;;;2.57;2.30;;;19.00;99.90;;;;;;4998221;28;20211;-86
2023/08/14 05:59:15;;;;;;;3.40;2.40;;;19.00;99.90;;;;;;4997806;28;20203;-83
2023/08/14 06:01:40;;;;;;;2.73;1.90;;;19.30;99.90;;;;;;4979692;28;20204;-84
2023/08/14 06:04:06;;;;;;;2.70;2.50;;;19.50;99.90;;;;;;4997883;28;20222;-83
2023/08/14 06:06:31;;;;;;;3.07;2.33;;;19.70;99.90;;;;;;4998997;28;20673;-85
2023/08/14 06:08:57;;;;;;;4.50;2.40;;;19.70;96.10;;;;;;4981552;28;20202;-85
2023/08/14 06:11:22;;;;;;;3.57;2.30;;;19.50;99.90;;;;;;4981751;28;20220;-86
2023/08/14 06:13:48;;;;;;;3.30;2.80;;;19.60;99.90;;;;;;4981114;28;20184;-84
2023/08/14 06:16:13;;;;;;;3.40;3.00;;;19.50;99.90;;;;;;4999182;28;20187;-84
2023/08/14 06:18:39;;;;;;;3.67;3.00;;;19.10;99.90;;;;;;4980993;28;20199;-85
2023/08/14 06:21:05;;;;;;;2.87;2.20;;;18.70;99.90;;;;;;4981626;28;20698;-84
2023/08/14 06:23:30;;;;;;;5.03;2.73;;;18.70;99.90;;;;;;4999540;28;20244;-84
2023/08/14 06:25:57;;;;;;;3.43;2.63;;;18.70;99.90;;;;;;4982703;28;20176;-84
2023/08/14 06:28:22;;;;;;;5.47;2.63;;;18.70;99.90;;;;;;5001419;28;20200;-84
2023/08/14 06:30:48;;;;;;;3.53;2.73;;;18.70;99.90;;;;;;4993486;28;20190;-84
2023/08/14 06:33:13;;;;;;;3.90;2.30;;;18.60;99.90;;;;;;5002030;28;20184;-83
2023/08/14 06:35:39;;;;;;;3.83;2.57;;;18.70;99.90;;;;;;5000782;28;20175;-84
2023/08/14 06:38:04;;;;;;;5.00;2.63;;;18.80;99.90;;;;;;5001125;28;20188;-84
2023/08/14 06:40:31;;;;;;;2.70;2.40;;;19.00;99.90;;;;;;4999531;28;20210;-84
2023/08/14 06:42:57;;;;;;;4.27;3.13;;;19.00;99.90;;;;;;4988549;28;20270;-84
2023/08/14 06:45:22;;;;;;;4.13;2.77;;;19.00;99.90;;;;;;5001615;28;20206;-84
2023/08/14 06:47:48;;;;;;;3.70;2.60;;;19.00;99.90;;;;;;5000720;28;20176;-85
2023/08/14 06:50:14;;;;;;;2.50;2.30;;;19.00;99.90;;;;;;4999341;28;20263;-84
2023/08/14 06:52:40;;;;;;;3.50;2.23;;;19.50;99.90;;;;;;4997622;28;20187;-84
2023/08/14 06:55:06;;;;;;;3.50;2.63;;;19.90;99.90;;;;;;4998582;28;20215;-84
2023/08/14 06:57:31;;;;;;;3.17;2.53;;;19.90;99.90;;;;;;4999128;28;20179;-84
2023/08/14 06:59:57;;;;;;;2.73;2.37;;;19.90;99.90;;;;;;5003259;28;20262;-84
2023/08/14 07:02:23;;;;;;;3.88;2.50;;;20.10;99.90;;;;;;5020909;28;20182;-84
2023/08/14 07:04:49;;;;;;;3.25;2.40;;;20.10;99.90;;;;;;5021729;28;20243;-85
2023/08/14 07:07:14;;;;;;;3.60;2.78;;;20.10;99.90;;;;;;5003479;28;20218;-83
2023/08/14 07:09:40;;;;;;;3.85;2.50;;;20.10;99.90;;;;;;5021502;28;20190;-84
2023/08/14 07:12:05;;;;;;;3.70;2.60;;;20.10;99.90;;;;;;5002659;28;20178;-84
2023/08/14 07:14:32;;;;;;;2.92;2.33;;;20.20;99.90;;;;;;5002929;28;20182;-86
2023/08/14 07:16:57;;;;;;;3.13;2.45;;;20.30;99.90;;;;;;5002226;28;20211;-85
2023/08/14 07:19:23;;;;;;;4.07;2.35;;;20.30;99.90;;;;;;4989963;28;20245;-84
2023/08/14 07:21:48;;;;;;;2.92;2.40;;;20.40;99.90;;;;;;4982955;28;20212;-84
2023/08/14 07:24:14;;;;;;;2.67;2.25;;;20.40;99.90;;;;;;4984073;28;20184;-84
2023/08/14 07:26:40;;;;;;;4.05;2.70;;;20.30;99.90;;;;;;4996760;28;20172;-85
2023/08/14 07:29:06;;;;;;;2.75;1.98;;;20.40;99.90;;;;;;4997927;28;20229;-84
2023/08/14 07:31:32;;;;;;;2.80;2.50;;;20.50;99.90;;;;;;4979753;28;20203;-83
2023/08/14 07:33:58;;;;;;;3.78;2.60;;;20.60;99.90;;;;;;4980273;28;20232;-83
2023/08/14 07:36:23;;;;;;;2.78;2.47;;;20.70;99.90;;;;;;4998183;28;20183;-83
2023/08/14 07:38:49;;;;;;;4.57;2.65;;;20.80;99.90;;;;;;4980150;28;20645;-84
2023/08/14 07:41:14;;;;;;;2.33;2.10;;;20.80;99.90;;;;;;4979585;28;20271;-84
2023/08/14 07:43:40;;;;;;;3.65;2.60;;;20.90;99.90;;;;;;4979153;28;20650;-83
2023/08/14 07:46:07;;;;;;;2.42;2.22;;;21.00;99.90;;;;;;4979841;28;20168;-81
2023/08/14 07:48:33;;;;;;;2.70;2.40;;;21.10;99.90;;;;;;4997231;28;20682;-84
2023/08/14 07:50:59;;;;;;;2.63;2.30;;;21.30;99.90;;;;;;4983342;28;20191;-84
2023/08/14 07:53:24;;;;;;;2.50;2.22;;;21.40;99.90;;;;;;4996761;28;20167;-83
2023/08/14 07:55:50;;;;;;;3.00;2.40;;;21.50;70.60;;;;;;4995985;28;20657;-83
2023/08/14 07:58:17;;;;;;;2.85;2.65;;;21.60;99.90;;;;;;4995832;28;20267;-83
2023/08/14 08:00:43;;;;;;;3.42;2.50;;;21.70;99.90;;;;;;4995851;28;20203;-83
2023/08/14 08:03:09;;;;;;;4.85;2.60;;;21.80;99.90;;;;;;4978705;28;20221;-83
2023/08/14 08:05:34;;;;;;;2.75;2.05;;;22.00;99.90;;;;;;4978780;28;20179;-83
2023/08/14 08:08:01;;;;;;;4.63;2.40;;;22.10;1.00;;;;;;4977601;28;20172;-84
2023/08/14 08:10:27;;;;;;;3.38;2.80;;;22.40;99.90;;;;;;4996265;28;20186;-83
2023/08/14 08:12:52;;;;;;;2.83;2.63;;;22.50;99.90;;;;;;4978506;28;20176;-83
2023/08/14 08:15:18;;;;;;;2.72;2.08;;;22.70;99.90;;;;;;4978703;28;20248;-83
2023/08/14 08:17:45;;;;;;;4.07;2.35;;;22.80;1.00;;;;;;4978823;28;20558;-84
2023/08/14 08:20:11;;;;;;;2.95;2.55;;;22.90;41.20;;;;;;4978257;28;20589;-84
2023/08/14 08:22:36;;;;;;;2.80;2.35;;;23.20;99.90;;;;;;4979008;28;20175;-84
2023/08/14 08:25:03;;;;;;;3.13;2.70;;;23.30;99.90;;;;;;4995779;28;20171;-84
2023/08/14 08:27:29;;;;;;;5.53;2.72;;;23.40;11.60;;;;;;4978042;28;20199;-84
2023/08/14 08:29:54;;;;;;;2.78;2.53;;;23.50;92.30;;;;;;4977530;28;20200;-83
2023/08/14 08:32:20;;;;;;;3.17;2.70;;;23.60;99.90;;;;;;4978222;28;20168;-82
2023/08/14 08:34:45;;;;;;;5.20;3.00;;;23.70;99.90;;;;;;4978733;28;20203;-83
2023/08/14 08:37:11;;;;;;;3.15;2.53;;;23.90;15.30;;;;;;4996611;28;20569;-83
2023/08/14 08:39:37;;;;;;;5.75;3.00;;;24.10;1.00;;;;;;4979692;28;20203;-81
2023/08/14 08:42:05;;;;;;;5.45;2.50;;;24.30;1.00;;;;;;4996219;28;20629;-83
2023/08/14 08:44:32;;;;;;;3.28;2.72;;;24.40;1.00;;;;;;4977950;28;20179;-84
2023/08/14 08:47:03;;;;;;;3.67;2.90;;;24.20;1.00;;;;;;4978103;28;20180;-84
2023/08/14 08:49:28;;;;;;;4.03;2.92;;;24.30;1.00;;;;;;4996031;28;20199;-83
2023/08/14 08:51:54;;;;;;;3.60;2.70;;;24.60;23.20;;;;;;4978509;28;20175;-84
2023/08/14 08:54:20;;;;;;;3.67;2.95;;;24.60;1.00;;;;;;4983929;28;20226;-83
2023/08/14 08:56:47;;;;;;;3.08;2.75;;;24.50;1.00;;;;;;4988040;28;20175;-83
2023/08/14 08:59:14;;;;;;;4.05;3.03;;;24.60;1.00;;;;;;4994408;28;20327;-83
2023/08/14 09:01:42;;;;;;;3.03;2.83;;;24.70;1.00;;;;;;4996299;28;20254;-83
2023/08/14 09:04:08;;;;;;;3.40;2.92;;;25.00;1.00;;;;;;4996278;28;20176;-83
2023/08/14 09:06:34;;;;;;;4.57;3.30;;;25.20;1.00;;;;;;4996150;28;20192;-82
2023/08/14 09:09:00;;;;;;;3.35;3.00;;;25.40;1.00;;;;;;4993946;28;20192;-84
2023/08/14 09:11:27;;;;;;;4.97;3.25;;;25.40;1.00;;;;;;4993959;28;20176;-83
2023/08/14 09:13:52;;;;;;;3.38;3.08;;;25.50;1.00;;;;;;4994032;28;20623;-84
2023/08/14 09:16:18;;;;;;;4.80;3.38;;;25.80;1.00;;;;;;4993710;28;20647;-86
2023/08/14 09:18:44;;;;;;;5.30;3.65;;;26.00;1.00;;;;;;4995658;28;20199;-83
2023/08/14 09:21:14;;;;;;;4.35;3.53;;;26.10;1.00;;;;;;4998403;28;20211;-83
2023/08/14 09:23:40;;;;;;;8.43;3.67;;;26.10;1.00;;;;;;4998613;28;20243;-83
2023/08/14 09:26:06;;;;;;;5.43;3.60;;;26.10;1.00;;;;;;4998770;28;20236;-83
2023/08/14 09:28:32;;;;;;;4.93;3.90;;;26.30;1.00;;;;;;4992716;28;20238;-83
2023/08/14 09:31:14;;;;;;;4.25;3.47;;;26.40;1.00;;;;;;4998624;28;20176;-83
2023/08/14 09:33:44;;;;;;;3.83;3.53;;;26.50;1.00;;;;;;4997145;28;20182;-83
2023/08/14 09:36:15;;;;;;;4.53;3.60;;;26.40;1.00;;;;;;4996950;28;20266;-83
2023/08/14 09:38:43;;;;;;;6.90;3.85;;;26.30;1.00;;;;;;4997890;28;20200;-83
2023/08/14 09:41:09;;;;;;;7.10;4.18;;;26.20;1.00;;;;;;4995580;28;20275;-84
2023/08/14 09:43:35;;;;;;;4.45;3.55;;;26.20;1.00;;;;;;4995671;28;20222;-83
2023/08/14 09:46:02;;;;;;;3.88;3.45;;;26.20;1.00;;;;;;4996530;28;20171;-83
2023/08/14 09:48:46;;;;;;;5.22;4.03;;;26.20;1.00;;;;;;4995915;28;20290;-84
2023/08/14 09:51:14;;;;;;;3.92;3.63;;;26.10;1.00;;;;;;4996663;28;20198;-83
2023/08/14 09:53:52;;;;;;;4.65;3.63;;;26.10;1.00;;;;;;4980475;28;20198;-85
2023/08/14 09:56:19;;;;;;;4.85;3.47;;;26.10;1.00;;;;;;4993369;28;20183;-84
2023/08/14 09:58:48;;;;;;;4.68;3.80;;;26.10;1.00;;;;;;4980043;28;20216;-82
2023/08/14 10:01:16;;;;;;;6.07;3.50;;;26.20;1.00;;;;;;4996271;28;20199;-84
2023/08/14 10:03:43;;;;;;;4.97;3.80;;;26.20;1.00;;;;;;4979908;28;20176;-82
2023/08/14 10:06:11;;;;;;;4.07;3.30;;;26.20;1.00;;;;;;4996639;28;20175;-83
2023/08/14 10:08:39;;;;;;;4.57;3.42;;;26.30;1.00;;;;;;4978380;28;20191;-83
2023/08/14 10:11:07;;;;;;;3.47;3.17;;;26.40;1.00;;;;;;4986246;28;20270;-83
2023/08/14 10:13:38;;;;;;;4.68;3.10;;;26.50;99.90;;;;;;4996444;28;20175;-82
2023/08/14 10:16:11;;;;;;;3.80;3.35;;;26.40;1.00;;;;;;4995525;28;20556;-82
2023/08/14 10:18:39;;;;;;;5.25;3.63;;;26.50;99.90;;;;;;4995260;28;20204;-83
2023/08/14 10:21:09;;;;;;;4.80;3.17;;;26.40;99.90;;;;;;4996003;28;20286;-83
2023/08/14 10:23:37;;;;;;;3.72;3.13;;;26.30;1.00;;;;;;4994847;28;20207;-83
2023/08/14 10:26:05;;;;;;;4.90;3.40;;;26.40;1.00;;;;;;4996218;28;20183;-85
2023/08/14 10:28:31;;;;;;;5.10;3.20;;;26.40;1.00;;;;;;5004337;28;20582;-83
2023/08/14 10:30:58;;;;;;;3.75;3.10;;;26.50;99.90;;;;;;5000046;28;20187;-84
2023/08/14 10:33:25;;;;;;;3.20;2.90;;;26.60;1.00;;;;;;5018850;28;20186;-84
2023/08/14 10:35:54;;;;;;;3.33;2.80;;;26.80;1.00;;;;;;5000507;28;20179;-85
2023/08/14 10:38:20;;;;;;;3.30;3.00;;;26.90;1.00;;;;;;4962425;28;1066172;-83
2023/08/14 10:41:04;;;;;;;3.15;2.70;;;27.10;99.90;;;;;;5000312;28;20202;-83
2023/08/14 10:43:30;;;;;;;3.53;2.65;;;27.20;99.90;;;;;;5019089;28;20163;-83
2023/08/14 10:45:56;;;;;;;2.85;2.58;;;27.60;99.90;;;;;;5020658;28;20190;-83
2023/08/14 10:48:22;;;;;;;4.03;2.75;;;27.80;1.00;;;;;;5019394;28;20278;-82
2023/08/14 10:50:49;;;;;;;3.17;2.70;;;27.60;99.90;;;;;;5000625;28;20182;-84
2023/08/14 10:53:16;;;;;;;3.35;2.70;;;27.30;1.00;;;;;;5001567;28;20201;-84
2023/08/14 10:55:45;;;;;;;3.63;2.50;;;27.20;99.90;;;;;;5019292;28;20271;-85
2023/08/14 10:58:31;;;;;;;2.97;2.60;;;27.00;1.00;;;;;;4999678;28;20193;-84
2023/08/14 11:01:05;;;;;;;3.20;2.90;;;26.90;99.90;;;;;;4993877;28;20211;-83
2023/08/14 11:03:33;;;;;;;5.25;2.83;;;27.00;1.00;;;;;;4988146;28;20167;-83
2023/08/14 11:05:59;;;;;;;2.90;2.70;;;27.10;93.70;;;;;;4996185;28;20765;-82
2023/08/14 11:08:30;;;;;;;3.33;2.80;;;27.50;1.00;;;;;;4996655;28;20286;-84
2023/08/14 11:10:56;;;;;;;3.22;2.92;;;27.70;1.00;;;;;;4997274;28;20176;-83
2023/08/14 11:13:22;;;;;;;3.85;2.97;;;27.70;99.90;;;;;;4996259;28;20222;-83
2023/08/14 11:15:48;;;;;;;3.90;2.80;;;27.80;1.00;;;;;;4995841;28;20179;-83
2023/08/14 11:18:14;;;;;;;2.60;2.40;;;28.10;99.90;;;;;;4996475;28;20669;-83
2023/08/14 11:20:42;;;;;;;3.05;2.67;;;28.20;99.90;;;;;;4995906;28;20207;-83
2023/08/14 11:23:09;;;;;;;4.07;3.00;;;28.20;1.00;;;;;;4989767;28;20567;-84
2023/08/14 11:25:35;;;;;;;3.13;2.80;;;28.30;99.90;;;;;;4977991;28;20260;-83
2023/08/14 11:28:01;;;;;;;3.38;2.90;;;28.20;99.90;;;;;;4959650;28;20172;-83
2023/08/14 11:30:31;;;;;;;2.90;2.70;;;28.10;1.00;;;;;;4960090;28;20312;-83
2023/08/14 11:32:57;;;;;;;2.90;2.58;;;28.10;1.00;;;;;;4977785;28;20188;-83
2023/08/14 11:35:25;;;;;;;3.53;2.60;;;28.00;1.00;;;;;;4960489;28;20172;-83
2023/08/14 11:37:51;;;;;;;2.75;2.47;;;28.20;99.90;;;;;;4960091;28;20271;-83
2023/08/14 11:40:17;;;;;;;4.85;2.80;;;28.50;99.90;;;;;;4977012;28;20303;-83
2023/08/14 11:42:43;;;;;;;3.22;2.58;;;28.60;1.00;;;;;;4959625;28;20184;-83
2023/08/14 11:45:10;;;;;;;3.03;2.72;;;28.70;44.90;;;;;;4988835;28;20187;-83
2023/08/14 11:47:38;;;;;;;3.50;2.50;;;28.80;1.00;;;;;;4979189;28;20207;-83
2023/08/14 11:50:04;;;;;;;3.03;2.70;;;28.80;15.70;;;;;;4996359;28;20211;-82
2023/08/14 11:52:30;;;;;;;2.95;2.75;;;28.90;99.90;;;;;;4996909;28;20176;-83
2023/08/14 11:54:56;;;;;;;3.15;2.70;;;29.10;1.00;;;;;;4996456;28;20226;-83
2023/08/14 11:57:30;;;;;;;2.70;2.50;;;29.40;45.80;;;;;;4996671;28;20176;-83
2023/08/14 11:59:56;;;;;;;3.08;2.63;;;29.70;99.90;;;;;;4996374;28;20200;-83
2023/08/14 12:02:24;;;;;;;2.55;2.33;;;29.70;1.00;;;;;;4993449;28;20180;-83
2023/08/14 12:04:54;;;;;;;2.95;2.65;;;30.00;36.40;;;;;;4996680;28;20280;-83
2023/08/14 12:07:20;;;;;;;4.28;2.70;;;30.30;1.00;;;;;;4979070;28;20167;-84
2023/08/14 12:09:46;;;;;;;3.63;3.00;;;30.30;99.90;;;;;;4978394;28;20187;-83
2023/08/14 12:12:13;;;;;;;3.10;2.80;;;30.40;1.00;;;;;;4995851;28;20203;-82
2023/08/14 12:14:39;;;;;;;3.45;2.50;;;30.70;1.00;;;;;;4978223;28;20658;-83
2023/08/14 12:17:08;;;;;;;3.55;2.80;;;30.80;1.00;;;;;;4977849;28;20239;-83
2023/08/14 12:19:34;;;;;;;2.65;2.45;;;31.00;1.00;;;;;;4977859;28;20218;-83
2023/08/14 12:22:00;;;;;;;2.85;2.63;;;31.20;1.00;;;;;;4991284;28;20583;-85
2023/08/14 12:24:26;;;;;;;5.93;2.55;;;30.80;1.00;;;;;;4993321;28;20629;-83
2023/08/14 12:26:52;;;;;;;4.22;2.70;;;30.50;99.90;;;;;;4994744;28;20681;-83
2023/08/14 12:29:18;;;;;;;4.80;2.55;;;30.30;1.00;;;;;;4994490;28;20245;-82
2023/08/14 12:31:44;;;;;;;4.10;2.90;;;30.40;99.90;;;;;;4995632;28;20193;-83
2023/08/14 12:34:10;;;;;;;3.38;2.80;;;30.40;99.90;;;;;;4997549;28;20198;-83
2023/08/14 12:36:35;;;;;;;3.65;2.53;;;30.40;99.90;;;;;;4997118;28;20598;-83
2023/08/14 12:39:01;;;;;;;3.72;2.92;;;30.60;99.90;;;;;;5015206;28;20207;-83
2023/08/14 12:41:27;;;;;;;3.72;2.63;;;30.60;99.90;;;;;;4997603;28;20214;-83
2023/08/14 12:43:53;;;;;;;3.50;2.75;;;30.90;99.90;;;;;;5015300;28;20249;-83
2023/08/14 12:46:18;;;;;;;3.13;2.60;;;31.00;1.00;;;;;;4997454;28;20179;-84